6A1

Butler Municipal Airport

Butler, Georgia, USA
METAR K6A1 210935Z AUTO 19006KT 10SM 24/22 A2991 RMK AO2 T02350222
Observed Flight Rules
Jul-21 @ 09:35 UTC (16 minutes ago)
Wind Visibility
190° at 6 knots 10 miles
Temperatures Readings
Current 24°C / 75°F
Dewpoint 22°C / 72°F
Humidity 89%
Altimeter 29.91" Hg
Pressure 1013 hPa
Elevation 203
METAR K6A1 210935Z AUTO 19006KT 10SM 24/22 A2991 RMK AO2 T02350222
Observed Flight Rules
Jul-21 @ 09:35 UTC
(16 minutes ago)
Wind Visibility
190° at 6 knots 10 miles
Temperature Dewpoint
24°C / 75°F 22°C / 72°F
Humidity Altimeter Pressure
89% 29.91" Hg 1013 hPa